Time;durP1;ratioP1;P1;durP2;ratioP2;P2;SDS_P1;SDS_P2;PMS_P1;PMS_P2;Temp;Humidity;BMP_temperature;BMP_pressure;BME280_temperature;BME280_humidity;BME280_pressure;Samples;Min_cycle;Max_cycle;Signal;HPM_P1;HPM_P2
2022/01/06 00:00:09;;;;;;;9.32;5.35;;;4.90;90.50;;;;;;4978866;28;20043;-79
2022/01/06 00:02:39;;;;;;;14.82;6.38;;;4.90;91.00;;;;;;4986347;28;20031;-84
2022/01/06 00:05:06;;;;;;;8.23;5.47;;;4.80;90.80;;;;;;4974809;28;20039;-84
2022/01/06 00:07:33;;;;;;;14.35;6.05;;;4.80;91.00;;;;;;4965772;29;20035;-85
2022/01/06 00:09:59;;;;;;;14.00;6.13;;;4.80;91.30;;;;;;4959989;29;20047;-85
2022/01/06 00:12:36;;;;;;;12.02;5.47;;;4.80;91.10;;;;;;4957270;29;20042;-84
2022/01/06 00:15:11;;;;;;;13.30;5.70;;;4.70;91.30;;;;;;4957777;29;20034;-83
2022/01/06 00:23:21;;;;;;;6.47;4.30;;;4.70;91.60;;;;;;4957151;29;20441;-84
2022/01/06 00:25:49;;;;;;;29.33;5.53;;;4.70;92.00;;;;;;4940467;29;20050;-84
2022/01/06 00:28:16;;;;;;;8.55;4.47;;;4.70;92.40;;;;;;4959650;29;20031;-85
2022/01/06 00:30:42;;;;;;;15.93;4.78;;;4.70;92.10;;;;;;4958895;29;20504;-85
2022/01/06 00:33:09;;;;;;;6.57;4.90;;;4.70;92.10;;;;;;4958316;29;20035;-81
2022/01/06 00:35:35;;;;;;;7.38;4.40;;;4.70;92.30;;;;;;4942886;29;20047;-83
2022/01/06 00:38:02;;;;;;;11.40;4.95;;;4.70;92.10;;;;;;4958515;29;20043;-84
2022/01/06 00:40:28;;;;;;;14.80;7.00;;;4.80;91.90;;;;;;4939933;29;20066;-84
2022/01/06 00:42:55;;;;;;;11.32;6.00;;;4.80;92.00;;;;;;4956068;29;20034;-84
2022/01/06 00:45:21;;;;;;;13.32;5.32;;;4.70;92.30;;;;;;4955742;29;20035;-85
2022/01/06 00:47:47;;;;;;;11.13;4.57;;;4.70;92.10;;;;;;4956892;29;20042;-85
2022/01/06 00:50:13;;;;;;;8.15;4.57;;;4.70;92.10;;;;;;4955181;29;20055;-82
2022/01/06 00:52:39;;;;;;;10.02;4.13;;;4.80;92.40;;;;;;4956174;29;20051;-83
2022/01/06 00:55:06;;;;;;;6.97;3.75;;;4.70;92.10;;;;;;4956253;29;20035;-84
2022/01/06 00:57:32;;;;;;;5.75;3.22;;;4.70;92.40;;;;;;4954877;29;20655;-84
2022/01/06 00:59:59;;;;;;;9.38;3.90;;;4.80;92.60;;;;;;4956518;29;20031;-83
2022/01/06 01:02:25;;;;;;;7.72;5.20;;;4.80;92.20;;;;;;4957577;29;20058;-82
2022/01/06 01:04:51;;;;;;;6.70;4.05;;;4.90;92.30;;;;;;4960797;29;20035;-84
2022/01/06 01:07:17;;;;;;;12.63;5.65;;;4.80;92.30;;;;;;4941228;29;20038;-84
2022/01/06 01:09:43;;;;;;;18.02;3.95;;;4.90;92.50;;;;;;4958247;29;20031;-83
2022/01/06 01:12:10;;;;;;;4.82;3.28;;;4.80;92.60;;;;;;4957806;29;20035;-83
2022/01/06 01:14:52;;;;;;;9.57;3.47;;;4.80;92.30;;;;;;4956415;29;20038;-83
2022/01/06 01:17:18;;;;;;;7.05;3.38;;;4.90;92.10;;;;;;4956897;29;20038;-84
2022/01/06 01:19:45;;;;;;;6.63;3.25;;;4.90;92.20;;;;;;4959368;29;20492;-82
2022/01/06 01:22:11;;;;;;;7.75;3.95;;;4.90;92.40;;;;;;4961200;29;20461;-81
2022/01/06 01:24:37;;;;;;;11.50;3.72;;;4.90;92.20;;;;;;4939999;29;20039;-84
2022/01/06 01:27:04;;;;;;;8.88;3.22;;;4.80;92.10;;;;;;4956576;29;20392;-84
2022/01/06 01:29:34;;;;;;;6.45;2.78;;;4.90;92.00;;;;;;4956141;29;20036;-84
2022/01/06 01:32:00;;;;;;;13.02;3.15;;;4.90;92.10;;;;;;4956181;29;20481;-84
2022/01/06 01:34:28;;;;;;;5.25;4.22;;;4.90;91.80;;;;;;4955350;29;20126;-84
2022/01/06 01:36:55;;;;;;;11.25;5.10;;;4.90;92.10;;;;;;4955603;28;20469;-84
2022/01/06 01:39:23;;;;;;;11.85;3.78;;;4.90;92.30;;;;;;4937733;29;20039;-84
2022/01/06 01:41:49;;;;;;;4.80;3.33;;;4.80;92.50;;;;;;4955719;29;20039;-84
2022/01/06 01:44:18;;;;;;;13.60;4.78;;;4.70;92.70;;;;;;4955048;29;20054;-82
2022/01/06 01:46:59;;;;;;;10.52;3.67;;;4.80;92.80;;;;;;4955647;29;20043;-85
2022/01/06 01:51:52;;;;;;;9.77;3.90;;;4.70;92.90;;;;;;4954867;29;20307;-84
2022/01/06 01:54:19;;;;;;;10.20;5.10;;;4.70;93.10;;;;;;4954932;29;20035;-84
2022/01/06 01:56:45;;;;;;;8.52;4.50;;;4.70;93.60;;;;;;4955276;29;20042;-84
2022/01/06 01:59:13;;;;;;;8.65;5.03;;;4.60;93.50;;;;;;4938480;29;20036;-84
2022/01/06 02:01:42;;;;;;;11.13;3.35;;;4.60;93.60;;;;;;4954855;29;20035;-84
2022/01/06 02:04:08;;;;;;;9.43;3.53;;;4.60;93.50;;;;;;4955848;29;20031;-83
2022/01/06 02:06:35;;;;;;;8.30;3.15;;;4.60;93.40;;;;;;4954993;29;20058;-83
2022/01/06 02:09:01;;;;;;;5.43;2.65;;;4.60;93.40;;;;;;4955900;29;20145;-83
2022/01/06 02:11:27;;;;;;;4.38;2.67;;;4.60;93.40;;;;;;4962438;29;20038;-84
2022/01/06 02:13:58;;;;;;;14.60;3.25;;;4.60;93.70;;;;;;4975192;28;20031;-82
2022/01/06 02:16:26;;;;;;;4.95;3.47;;;4.60;93.60;;;;;;4960491;28;20038;-82
2022/01/06 02:18:54;;;;;;;8.40;2.92;;;4.50;93.90;;;;;;4964391;29;20032;-84
2022/01/06 02:21:20;;;;;;;8.60;3.35;;;4.50;93.80;;;;;;4954307;29;20464;-84
2022/01/06 02:23:47;;;;;;;17.92;3.47;;;4.50;94.00;;;;;;4955070;29;20560;-85
2022/01/06 02:26:13;;;;;;;4.28;2.22;;;4.50;94.20;;;;;;4940348;29;20047;-84
2022/01/06 02:28:40;;;;;;;3.80;2.20;;;4.50;94.70;;;;;;4958168;29;20035;-85
2022/01/06 02:31:08;;;;;;;6.50;2.95;;;4.40;94.70;;;;;;4941005;29;20043;-84
2022/01/06 02:33:35;;;;;;;5.63;3.42;;;4.40;95.00;;;;;;4957206;29;20043;-85
2022/01/06 02:36:02;;;;;;;3.63;2.42;;;4.40;95.30;;;;;;4957784;29;20035;-84
2022/01/06 02:38:28;;;;;;;6.40;3.25;;;4.30;95.80;;;;;;4958111;29;20031;-84
2022/01/06 02:40:54;;;;;;;4.13;2.88;;;4.30;96.20;;;;;;4957955;29;20050;-83
2022/01/06 02:43:23;;;;;;;6.15;3.53;;;4.20;96.30;;;;;;4958579;29;20031;-82
2022/01/06 02:45:50;;;;;;;3.85;2.92;;;4.20;96.40;;;;;;4957707;29;20035;-85
2022/01/06 02:48:17;;;;;;;6.22;3.35;;;4.30;96.40;;;;;;4958568;28;20036;-79
2022/01/06 02:50:49;;;;;;;12.50;4.18;;;4.30;96.50;;;;;;4960001;29;20058;-85
2022/01/06 02:53:16;;;;;;;6.75;4.88;;;4.30;96.50;;;;;;4960198;29;20031;-85
2022/01/06 02:55:50;;;;;;;5.93;3.80;;;4.30;96.60;;;;;;4942772;29;20043;-85
2022/01/06 02:58:17;;;;;;;10.10;3.65;;;4.30;96.80;;;;;;4960270;29;20035;-78
2022/01/06 03:00:44;;;;;;;6.25;2.85;;;4.30;97.20;;;;;;4961363;29;20461;-85
2022/01/06 03:03:10;;;;;;;7.35;3.22;;;4.30;97.30;;;;;;4961431;29;20108;-85
2022/01/06 03:05:37;;;;;;;5.70;3.35;;;4.40;97.10;;;;;;4965897;29;20036;-85
2022/01/06 03:08:03;;;;;;;6.03;2.78;;;4.50;96.90;;;;;;4962096;29;20038;-87
2022/01/06 03:10:31;;;;;;;3.72;3.05;;;4.50;96.20;;;;;;4961003;29;20512;-85
2022/01/06 03:12:57;;;;;;;5.13;2.40;;;4.60;95.80;;;;;;4943389;29;20043;-86
2022/01/06 03:15:25;;;;;;;13.25;2.92;;;4.60;95.20;;;;;;4960309;29;20031;-84
2022/01/06 03:17:55;;;;;;;6.55;2.25;;;4.50;95.10;;;;;;4960267;29;20039;-86
2022/01/06 03:20:23;;;;;;;2.93;1.60;;;4.50;95.00;;;;;;4943165;29;20039;-80
2022/01/06 03:22:51;;;;;;;7.93;2.78;;;4.50;95.00;;;;;;4942439;29;20277;-85
2022/01/06 03:25:17;;;;;;;2.40;1.65;;;4.50;94.80;;;;;;4961171;29;20035;-85
2022/01/06 03:27:44;;;;;;;3.15;2.20;;;4.60;94.70;;;;;;4957806;29;20035;-85
2022/01/06 03:30:22;;;;;;;6.43;2.42;;;4.60;94.70;;;;;;4958097;29;20038;-84
2022/01/06 03:32:49;;;;;;;2.70;1.58;;;4.60;95.00;;;;;;4958435;29;20054;-86
2022/01/06 03:35:20;;;;;;;5.68;2.42;;;4.60;94.60;;;;;;4940846;29;20039;-86
2022/01/06 03:37:46;;;;;;;7.32;1.95;;;4.50;94.40;;;;;;4957557;29;20043;-86
2022/01/06 03:40:13;;;;;;;4.45;1.75;;;4.50;94.50;;;;;;4958377;29;20038;-86
2022/01/06 03:42:40;;;;;;;5.05;2.22;;;4.50;94.50;;;;;;4956861;29;20035;-87
2022/01/06 03:45:10;;;;;;;6.10;2.15;;;4.60;94.20;;;;;;4957520;29;20040;-85
2022/01/06 03:47:36;;;;;;;5.43;2.33;;;4.60;94.20;;;;;;4956977;29;20472;-85
2022/01/06 03:50:03;;;;;;;6.97;1.85;;;4.60;93.80;;;;;;4958289;29;20039;-85
2022/01/06 03:52:29;;;;;;;3.40;2.20;;;4.80;93.50;;;;;;4965014;29;20059;-85
2022/01/06 03:54:55;;;;;;;5.75;1.95;;;4.70;93.70;;;;;;4967857;29;20035;-85
2022/01/06 03:57:22;;;;;;;5.10;1.98;;;4.70;93.50;;;;;;4964189;29;20035;-80
2022/01/06 03:59:48;;;;;;;7.30;1.98;;;4.70;93.60;;;;;;4957528;28;20035;-85
2022/01/06 04:02:14;;;;;;;8.90;2.28;;;4.70;93.20;;;;;;4957436;29;20058;-84
2022/01/06 04:04:40;;;;;;;4.10;2.05;;;4.70;93.20;;;;;;4957537;29;20217;-85
2022/01/06 04:07:06;;;;;;;5.13;1.90;;;4.70;93.10;;;;;;4965035;29;20035;-85
2022/01/06 04:09:33;;;;;;;13.90;2.20;;;4.60;93.20;;;;;;4967614;29;20035;-85
2022/01/06 04:11:59;;;;;;;5.80;2.25;;;4.60;93.20;;;;;;4968952;29;20048;-85
2022/01/06 04:14:25;;;;;;;5.50;2.03;;;4.60;93.10;;;;;;4963566;29;20038;-79
2022/01/06 04:16:58;;;;;;;6.30;2.42;;;4.60;93.10;;;;;;4958372;29;20031;-85
2022/01/06 04:19:24;;;;;;;5.82;2.17;;;4.60;93.30;;;;;;4957892;29;20384;-78
2022/01/06 04:21:51;;;;;;;5.18;2.45;;;4.50;93.40;;;;;;4957115;29;20043;-86
2022/01/06 04:24:17;;;;;;;4.45;2.53;;;4.50;93.50;;;;;;4958107;29;20031;-85
2022/01/06 04:26:44;;;;;;;3.88;2.28;;;4.40;93.80;;;;;;4956375;29;20034;-85
2022/01/06 04:29:10;;;;;;;5.80;2.88;;;4.30;94.20;;;;;;4956710;29;20380;-86
2022/01/06 04:31:38;;;;;;;4.35;2.53;;;4.30;94.40;;;;;;4956491;29;20050;-86
2022/01/06 04:34:04;;;;;;;7.38;2.85;;;4.20;95.00;;;;;;4957081;29;20035;-85
2022/01/06 04:36:30;;;;;;;3.22;2.45;;;4.20;94.90;;;;;;4955948;29;20031;-84
2022/01/06 04:38:57;;;;;;;9.18;3.08;;;4.30;95.00;;;;;;4957635;29;20039;-85
2022/01/06 04:41:23;;;;;;;3.95;2.33;;;4.20;95.00;;;;;;4939855;29;20047;-79
2022/01/06 04:43:49;;;;;;;8.05;3.00;;;4.20;95.10;;;;;;4955603;29;20031;-85
2022/01/06 04:46:16;;;;;;;8.07;2.95;;;4.20;95.00;;;;;;4958070;29;20035;-84
2022/01/06 04:48:42;;;;;;;6.53;3.33;;;4.10;95.10;;;;;;4960242;29;20023;-83
2022/01/06 04:51:08;;;;;;;8.05;2.75;;;4.10;95.30;;;;;;4963333;29;20054;-86
2022/01/06 04:53:34;;;;;;;4.32;2.33;;;4.00;95.30;;;;;;4955255;29;20062;-86
2022/01/06 04:56:01;;;;;;;6.35;2.67;;;3.90;95.40;;;;;;4955424;29;20039;-85
2022/01/06 04:58:28;;;;;;;11.65;3.33;;;3.90;95.50;;;;;;4921426;29;20050;-79
2022/01/06 05:00:54;;;;;;;2.70;1.85;;;3.80;95.70;;;;;;4937969;29;20043;-85
2022/01/06 05:03:20;;;;;;;5.45;2.22;;;3.80;96.00;;;;;;4955075;29;20357;-85
2022/01/06 05:05:46;;;;;;;5.20;2.67;;;3.70;96.10;;;;;;4954139;29;20056;-86
2022/01/06 05:08:12;;;;;;;5.15;2.65;;;3.60;96.40;;;;;;4955469;29;20036;-86
2022/01/06 05:10:38;;;;;;;7.93;2.95;;;3.60;96.70;;;;;;4953871;29;20042;-85
2022/01/06 05:13:05;;;;;;;6.50;2.75;;;3.60;97.00;;;;;;4953910;28;20027;-87
2022/01/06 05:15:31;;;;;;;4.97;2.72;;;3.50;97.30;;;;;;4954107;29;20029;-86
2022/01/06 05:17:57;;;;;;;6.85;2.95;;;3.50;97.70;;;;;;4955259;29;20043;-86
2022/01/06 05:20:25;;;;;;;4.00;2.88;;;3.50;97.60;;;;;;4954760;29;20377;-85
2022/01/06 05:22:55;;;;;;;6.90;2.70;;;3.50;97.70;;;;;;4954085;29;20031;-85
2022/01/06 05:25:25;;;;;;;5.05;2.90;;;3.50;97.70;;;;;;4955305;29;20415;-85
2022/01/06 05:27:53;;;;;;;4.38;2.58;;;3.50;97.70;;;;;;4954199;29;20035;-85
2022/01/06 05:30:20;;;;;;;7.18;3.60;;;3.50;97.60;;;;;;4937619;29;20393;-86
2022/01/06 05:32:46;;;;;;;4.40;2.17;;;3.50;97.80;;;;;;4953551;29;20047;-86
2022/01/06 05:35:12;;;;;;;12.35;3.00;;;3.50;98.10;;;;;;4954530;29;20039;-85
2022/01/06 05:37:38;;;;;;;3.53;2.47;;;3.40;98.30;;;;;;4953644;29;20027;-85
2022/01/06 05:40:05;;;;;;;8.75;3.35;;;3.40;98.30;;;;;;4957751;29;20031;-86
2022/01/06 05:42:32;;;;;;;8.73;3.03;;;3.40;98.40;;;;;;4960304;29;20046;-85
2022/01/06 05:44:58;;;;;;;6.00;2.33;;;3.40;98.60;;;;;;4955378;29;20035;-86
2022/01/06 05:47:24;;;;;;;6.82;3.28;;;3.30;98.80;;;;;;4975251;29;20464;-84
2022/01/06 05:49:50;;;;;;;8.95;2.67;;;3.30;99.10;;;;;;4976573;29;20372;-85
2022/01/06 05:52:17;;;;;;;8.77;2.72;;;3.30;98.90;;;;;;4963532;29;20047;-87
2022/01/06 05:54:43;;;;;;;6.60;3.00;;;3.40;98.90;;;;;;4954441;29;20057;-86
2022/01/06 05:57:10;;;;;;;5.13;2.85;;;3.30;99.10;;;;;;4955072;29;20031;-86
2022/01/06 05:59:36;;;;;;;6.47;2.65;;;3.40;99.20;;;;;;4954008;29;20042;-86
2022/01/06 06:02:02;;;;;;;17.48;3.70;;;3.30;99.30;;;;;;4954673;29;20047;-86
2022/01/06 06:04:28;;;;;;;8.68;3.80;;;3.40;99.50;;;;;;4954353;29;20032;-79
2022/01/06 06:06:55;;;;;;;4.53;3.15;;;3.40;99.50;;;;;;4954392;29;20032;-85
2022/01/06 06:09:21;;;;;;;4.68;2.90;;;3.50;99.90;;;;;;4954492;29;20057;-84
2022/01/06 06:11:47;;;;;;;11.45;3.50;;;3.60;99.50;;;;;;4936070;29;20051;-85
2022/01/06 06:14:13;;;;;;;5.40;3.05;;;3.70;99.40;;;;;;4954863;29;20038;-84
2022/01/06 06:16:40;;;;;;;8.15;3.15;;;3.70;99.20;;;;;;4954442;29;20046;-85
2022/01/06 06:19:06;;;;;;;13.75;3.00;;;3.80;99.00;;;;;;4954814;29;20479;-85
2022/01/06 06:21:32;;;;;;;4.50;2.72;;;3.90;98.50;;;;;;4954533;29;20569;-84
2022/01/06 06:23:58;;;;;;;7.38;2.33;;;4.00;97.30;;;;;;4957687;28;20035;-85
2022/01/06 06:26:24;;;;;;;7.25;2.55;;;4.10;96.80;;;;;;4969647;29;20045;-85
2022/01/06 06:28:50;;;;;;;3.58;1.85;;;4.00;96.30;;;;;;4975815;29;20032;-86
2022/01/06 06:31:17;;;;;;;8.82;2.28;;;4.10;96.00;;;;;;4975858;29;20042;-84
2022/01/06 06:33:43;;;;;;;8.80;2.88;;;4.10;95.70;;;;;;4979278;29;20025;-86
2022/01/06 06:36:09;;;;;;;4.18;2.30;;;4.10;95.80;;;;;;4974976;29;20407;-87
2022/01/06 06:38:35;;;;;;;6.75;2.63;;;4.10;95.80;;;;;;4959864;29;20035;-85
2022/01/06 06:41:02;;;;;;;6.65;3.10;;;4.00;95.90;;;;;;4959589;29;20445;-85
2022/01/06 06:43:28;;;;;;;6.85;3.20;;;3.90;96.30;;;;;;4958922;29;20046;-86
2022/01/06 06:45:54;;;;;;;7.68;3.95;;;3.90;96.80;;;;;;4957314;29;20058;-86
2022/01/06 06:48:22;;;;;;;6.63;3.13;;;3.80;97.10;;;;;;4940843;29;20047;-86
2022/01/06 06:50:48;;;;;;;4.32;2.80;;;3.80;97.20;;;;;;4957214;29;20393;-85
2022/01/06 06:53:14;;;;;;;6.18;3.38;;;3.80;97.20;;;;;;4954713;29;20043;-85
2022/01/06 06:55:40;;;;;;;6.70;2.88;;;3.80;97.20;;;;;;4957464;29;20031;-85
2022/01/06 06:58:07;;;;;;;6.18;2.65;;;3.70;97.60;;;;;;4958162;29;20038;-85
2022/01/06 07:00:33;;;;;;;11.63;3.67;;;3.60;97.80;;;;;;4957237;29;20031;-78
2022/01/06 07:02:59;;;;;;;4.95;4.05;;;3.60;98.20;;;;;;4957081;29;20492;-85
2022/01/06 07:05:26;;;;;;;7.22;3.25;;;3.50;98.50;;;;;;4957894;29;20035;-85
2022/01/06 07:07:52;;;;;;;7.18;3.03;;;3.50;98.60;;;;;;4939242;29;20042;-85
2022/01/06 07:10:18;;;;;;;4.82;3.40;;;3.40;98.80;;;;;;4957253;29;20036;-84
2022/01/06 07:12:45;;;;;;;8.48;4.47;;;3.40;99.00;;;;;;4956801;29;20039;-86
2022/01/06 07:15:14;;;;;;;9.40;4.07;;;3.30;99.10;;;;;;4957420;29;20031;-85
2022/01/06 07:17:41;;;;;;;6.05;3.30;;;3.40;99.00;;;;;;4957266;29;20039;-85
2022/01/06 07:20:08;;;;;;;4.53;3.30;;;3.30;99.10;;;;;;4939742;29;20044;-84
2022/01/06 07:22:34;;;;;;;8.38;3.85;;;3.50;99.00;;;;;;4956596;29;20039;-79
2022/01/06 07:25:01;;;;;;;6.95;3.20;;;3.50;98.80;;;;;;4957815;29;20046;-85
2022/01/06 07:27:27;;;;;;;5.15;3.15;;;3.40;98.70;;;;;;4956799;29;20031;-85
2022/01/06 07:29:54;;;;;;;7.57;2.78;;;3.40;98.40;;;;;;4955996;29;20042;-86
2022/01/06 07:32:20;;;;;;;4.10;2.15;;;3.40;98.00;;;;;;4956837;29;20506;-84
2022/01/06 07:34:46;;;;;;;8.20;5.20;;;3.40;98.00;;;;;;4937698;29;20043;-86
2022/01/06 07:37:12;;;;;;;7.57;2.55;;;3.30;98.10;;;;;;4957181;29;20035;-86
2022/01/06 07:39:38;;;;;;;4.43;2.05;;;3.20;98.40;;;;;;4937830;29;20054;-85
2022/01/06 07:42:05;;;;;;;8.85;3.63;;;3.10;98.80;;;;;;4956697;29;20055;-86
2022/01/06 07:44:31;;;;;;;7.05;3.65;;;3.00;99.00;;;;;;4956430;29;20035;-85
2022/01/06 07:46:59;;;;;;;7.13;5.30;;;3.00;99.30;;;;;;4955321;29;20035;-83
2022/01/06 07:49:27;;;;;;;10.27;4.25;;;3.00;99.40;;;;;;4955367;29;20050;-82
2022/01/06 07:51:54;;;;;;;5.38;2.85;;;2.90;99.60;;;;;;4954618;29;20535;-83
2022/01/06 07:54:21;;;;;;;10.07;3.75;;;3.00;99.50;;;;;;4943841;29;20031;-83
2022/01/06 07:56:47;;;;;;;5.65;3.25;;;2.90;99.50;;;;;;4943245;29;20040;-82
2022/01/06 07:59:14;;;;;;;4.93;2.65;;;2.90;99.60;;;;;;4944618;29;20036;-83
2022/01/06 08:01:40;;;;;;;16.55;4.10;;;2.90;99.70;;;;;;4940742;29;20051;-82
2022/01/06 08:04:06;;;;;;;5.25;3.80;;;2.90;99.90;;;;;;4936168;29;20153;-81
2022/01/06 08:06:32;;;;;;;5.88;2.38;;;2.90;99.90;;;;;;4936339;29;20031;-82
2022/01/06 08:08:58;;;;;;;11.40;2.90;;;2.90;99.90;;;;;;4935746;29;20485;-83
2022/01/06 08:11:24;;;;;;;11.95;4.45;;;3.00;99.90;;;;;;4936318;29;20385;-82
2022/01/06 08:13:50;;;;;;;7.03;2.97;;;3.00;99.90;;;;;;4935954;29;20043;-83
2022/01/06 08:16:17;;;;;;;7.45;3.22;;;3.00;99.90;;;;;;4937016;29;20035;-82
2022/01/06 08:18:43;;;;;;;8.13;3.25;;;3.00;99.90;;;;;;4938352;29;20039;-82
2022/01/06 08:21:09;;;;;;;10.45;2.65;;;3.10;99.70;;;;;;4938031;29;20039;-82
2022/01/06 08:23:35;;;;;;;17.55;3.38;;;3.10;99.30;;;;;;4919753;29;20035;-83
2022/01/06 08:26:03;;;;;;;11.57;3.30;;;3.20;99.20;;;;;;4935387;29;20036;-83
2022/01/06 08:28:29;;;;;;;4.10;2.20;;;3.30;98.70;;;;;;4935888;29;20039;-85
2022/01/06 08:30:55;;;;;;;4.97;2.95;;;3.30;98.10;;;;;;4935291;29;20461;-82
2022/01/06 08:33:22;;;;;;;6.45;3.00;;;3.40;98.00;;;;;;4935992;29;20386;-83
2022/01/06 08:35:48;;;;;;;8.40;2.80;;;3.40;97.90;;;;;;4939204;29;20370;-82
2022/01/06 08:38:14;;;;;;;3.22;2.47;;;3.50;98.00;;;;;;4947214;29;20039;-80
2022/01/06 08:40:41;;;;;;;3.55;2.38;;;3.50;97.70;;;;;;4943637;29;20031;-82
2022/01/06 08:43:07;;;;;;;5.00;2.65;;;3.50;97.70;;;;;;4928775;29;20050;-85
2022/01/06 08:45:34;;;;;;;5.55;3.17;;;3.60;97.30;;;;;;4944196;29;20031;-84
2022/01/06 08:48:01;;;;;;;5.93;3.72;;;3.60;96.80;;;;;;4935659;29;20035;-84
2022/01/06 08:50:28;;;;;;;15.45;9.85;;;3.80;97.00;;;;;;4935441;29;20039;-84
2022/01/06 08:52:56;;;;;;;8.85;3.15;;;3.90;96.80;;;;;;4935139;29;20111;-85
2022/01/06 08:55:25;;;;;;;8.02;3.03;;;3.90;95.70;;;;;;4935505;29;20054;-85
2022/01/06 08:57:52;;;;;;;4.45;3.28;;;4.00;96.10;;;;;;4935189;29;20032;-85
2022/01/06 09:00:18;;;;;;;13.95;3.67;;;4.00;95.70;;;;;;4935990;29;20385;-84
2022/01/06 09:02:44;;;;;;;5.85;2.58;;;4.00;95.50;;;;;;4917922;29;20048;-83
2022/01/06 09:05:11;;;;;;;16.23;3.00;;;4.10;95.50;;;;;;4935902;29;20047;-85
2022/01/06 09:07:37;;;;;;;8.25;3.25;;;4.00;95.30;;;;;;4937135;29;20142;-81
2022/01/06 09:10:04;;;;;;;5.63;3.00;;;4.00;95.40;;;;;;4921868;29;20034;-82
2022/01/06 09:12:30;;;;;;;7.75;2.83;;;4.00;95.30;;;;;;4935808;29;20047;-87
2022/01/06 09:14:57;;;;;;;8.43;2.22;;;4.00;95.40;;;;;;4935242;29;20036;-84
2022/01/06 09:17:23;;;;;;;7.32;2.85;;;4.00;95.20;;;;;;4935348;29;20048;-83
2022/01/06 09:19:49;;;;;;;7.05;2.85;;;4.00;95.30;;;;;;4933856;29;20046;-85
2022/01/06 09:22:15;;;;;;;3.75;2.05;;;4.00;95.40;;;;;;4948176;29;20043;-78
2022/01/06 09:24:42;;;;;;;8.60;2.90;;;4.00;95.30;;;;;;4952773;29;20587;-78
2022/01/06 09:27:09;;;;;;;8.60;3.25;;;4.00;95.30;;;;;;4953794;29;20046;-78
2022/01/06 09:29:35;;;;;;;4.22;2.58;;;4.00;95.10;;;;;;4954936;29;20035;-78
2022/01/06 09:32:02;;;;;;;7.13;2.58;;;4.10;95.20;;;;;;4953838;29;20457;-78
2022/01/06 09:34:28;;;;;;;5.75;2.88;;;4.10;95.10;;;;;;4954324;29;20023;-78
2022/01/06 09:36:55;;;;;;;5.55;2.75;;;4.10;94.90;;;;;;4952962;29;20054;-77
2022/01/06 09:39:21;;;;;;;7.47;3.08;;;4.20;94.70;;;;;;4954005;29;20039;-78
2022/01/06 09:41:48;;;;;;;7.43;3.38;;;4.30;94.30;;;;;;4953146;29;20046;-78
2022/01/06 09:44:14;;;;;;;8.85;3.08;;;4.40;94.50;;;;;;4936810;29;20042;-78
2022/01/06 09:46:42;;;;;;;4.13;2.47;;;4.50;94.30;;;;;;4953477;29;20043;-78
2022/01/06 09:49:08;;;;;;;5.85;2.97;;;4.60;94.00;;;;;;4953216;29;20042;-78
2022/01/06 09:51:35;;;;;;;4.72;2.55;;;4.80;93.70;;;;;;4953766;29;20457;-78
2022/01/06 09:54:01;;;;;;;4.68;1.90;;;4.80;93.30;;;;;;4953188;29;20035;-78
2022/01/06 09:56:29;;;;;;;12.10;2.67;;;4.80;93.30;;;;;;4953816;29;20489;-78
2022/01/06 09:58:57;;;;;;;10.27;2.40;;;4.90;93.10;;;;;;4957259;28;20046;-79
2022/01/06 10:01:23;;;;;;;12.95;3.40;;;5.00;92.60;;;;;;4963802;29;20035;-78
2022/01/06 10:03:50;;;;;;;4.55;2.10;;;5.00;92.30;;;;;;4961385;28;20039;-78
2022/01/06 10:06:19;;;;;;;18.25;2.40;;;5.00;92.00;;;;;;4960673;29;20046;-79
2022/01/06 10:08:55;;;;;;;4.72;1.90;;;5.20;91.80;;;;;;4942312;29;20392;-79
2022/01/06 10:11:25;;;;;;;7.47;1.98;;;5.10;91.30;;;;;;4960305;29;20032;-76
2022/01/06 10:14:05;;;;;;;8.60;2.70;;;5.20;91.50;;;;;;4959321;29;20054;-79
2022/01/06 10:16:32;;;;;;;14.70;2.22;;;5.40;91.30;;;;;;4960082;29;20047;-76
2022/01/06 10:19:07;;;;;;;4.85;2.03;;;5.30;90.80;;;;;;4959276;29;20058;-76
2022/01/06 10:21:42;;;;;;;6.93;2.38;;;5.30;91.00;;;;;;4959727;28;20035;-76
2022/01/06 10:24:17;;;;;;;12.02;2.55;;;5.30;90.80;;;;;;4959226;28;20035;-79
2022/01/06 10:27:05;;;;;;;6.55;2.53;;;5.30;90.60;;;;;;4942166;29;20051;-76
2022/01/06 10:29:37;;;;;;;6.65;2.28;;;5.40;90.40;;;;;;4959908;29;20496;-78
2022/01/06 10:32:23;;;;;;;13.68;2.47;;;5.30;90.70;;;;;;4958810;29;20039;-77
2022/01/06 10:34:55;;;;;;;14.52;2.83;;;5.50;90.20;;;;;;4959249;28;20063;-77
2022/01/06 10:37:25;;;;;;;11.07;2.22;;;5.40;90.20;;;;;;4959923;29;20027;-77
2022/01/06 10:39:54;;;;;;;6.07;2.75;;;5.50;90.10;;;;;;4959370;29;20039;-79
2022/01/06 10:42:26;;;;;;;5.50;2.17;;;5.60;90.10;;;;;;4959879;29;20612;-77
2022/01/06 10:44:56;;;;;;;6.25;2.47;;;5.70;89.60;;;;;;4958228;29;20400;-76
2022/01/06 10:47:36;;;;;;;5.80;2.17;;;5.80;89.60;;;;;;4956554;28;20035;-76
2022/01/06 10:50:19;;;;;;;7.32;1.85;;;5.90;88.70;;;;;;4957031;28;20027;-76
2022/01/06 10:52:51;;;;;;;8.38;2.25;;;5.90;87.60;;;;;;4959241;28;20059;-76
2022/01/06 10:55:20;;;;;;;6.72;2.25;;;5.80;88.00;;;;;;4959864;29;20046;-76
2022/01/06 10:58:01;;;;;;;6.32;2.42;;;5.80;87.40;;;;;;4959560;28;20027;-77
2022/01/06 11:00:35;;;;;;;3.42;2.08;;;5.70;87.90;;;;;;4942722;29;20031;-76
2022/01/06 11:03:25;;;;;;;6.22;2.72;;;5.70;88.10;;;;;;4958564;29;20031;-76
2022/01/06 11:05:54;;;;;;;7.95;2.40;;;5.60;87.90;;;;;;4949531;28;20062;-77
2022/01/06 11:08:27;;;;;;;6.78;2.45;;;5.70;88.50;;;;;;4959653;28;20046;-76
2022/01/06 11:13:42;;;;;;;16.05;2.78;;;5.90;87.90;;;;;;4956499;29;20035;-79
2022/01/06 11:16:12;;;;;;;12.40;5.72;;;5.90;87.10;;;;;;4955666;29;20042;-76
2022/01/06 11:19:01;;;;;;;6.40;2.65;;;5.90;86.70;;;;;;4956636;29;20038;-76
2022/01/06 11:21:40;;;;;;;14.32;4.90;;;5.80;86.30;;;;;;4955456;29;20050;-76
2022/01/06 11:24:10;;;;;;;6.15;2.53;;;5.70;85.70;;;;;;4955647;29;20035;-76
2022/01/06 11:26:36;;;;;;;11.32;3.20;;;5.70;86.30;;;;;;4956175;29;20042;-76
2022/01/06 11:29:03;;;;;;;6.28;3.42;;;5.80;85.30;;;;;;4955368;29;20039;-77
2022/01/06 11:31:42;;;;;;;7.72;3.60;;;5.80;86.10;;;;;;4938966;29;20027;-76
2022/01/06 11:34:18;;;;;;;7.70;2.17;;;5.90;84.80;;;;;;4954693;29;20094;-76
2022/01/06 11:36:46;;;;;;;11.25;2.35;;;5.80;84.20;;;;;;4938596;29;20050;-77
2022/01/06 11:39:24;;;;;;;13.20;3.45;;;5.80;84.50;;;;;;4937816;29;20039;-77
2022/01/06 11:41:51;;;;;;;6.53;2.08;;;5.80;84.60;;;;;;4938307;29;20457;-79
2022/01/06 11:44:18;;;;;;;6.72;2.13;;;5.90;84.20;;;;;;4956179;29;20050;-77
2022/01/06 11:46:49;;;;;;;4.40;1.98;;;5.80;83.90;;;;;;4961940;29;20035;-77
2022/01/06 11:49:28;;;;;;;4.68;2.00;;;5.80;84.50;;;;;;4938492;29;20038;-72
2022/01/06 11:52:13;;;;;;;4.90;2.15;;;5.80;84.40;;;;;;4951961;29;20062;-73
2022/01/06 11:54:54;;;;;;;9.95;2.47;;;5.90;84.20;;;;;;4955059;29;20054;-73
2022/01/06 11:57:32;;;;;;;9.13;2.58;;;5.90;83.70;;;;;;4956258;29;20051;-73
2022/01/06 12:00:01;;;;;;;4.95;1.98;;;6.00;83.90;;;;;;4955237;29;20046;-74
2022/01/06 12:02:27;;;;;;;10.15;2.10;;;6.10;83.40;;;;;;4955604;29;20035;-73
2022/01/06 12:04:59;;;;;;;12.43;2.53;;;6.10;83.30;;;;;;4954947;29;20031;-78
2022/01/06 12:07:27;;;;;;;8.85;2.20;;;6.10;82.80;;;;;;4937664;29;20521;-74
2022/01/06 12:09:57;;;;;;;7.05;2.17;;;6.10;82.50;;;;;;4954920;29;20031;-79
2022/01/06 12:12:35;;;;;;;8.00;3.08;;;6.10;82.20;;;;;;4955329;29;20047;-73
2022/01/06 12:15:17;;;;;;;7.78;2.60;;;6.20;83.40;;;;;;4954743;29;20039;-73
2022/01/06 12:17:47;;;;;;;10.70;2.15;;;6.30;83.80;;;;;;4955408;29;20036;-73
2022/01/06 12:20:22;;;;;;;9.52;2.60;;;6.40;81.90;;;;;;4954445;28;20595;-73
2022/01/06 12:22:49;;;;;;;6.60;2.78;;;6.30;82.00;;;;;;4954876;29;20455;-73
2022/01/06 12:25:15;;;;;;;9.88;2.42;;;6.30;81.40;;;;;;4954476;29;20051;-73
2022/01/06 12:27:49;;;;;;;6.55;2.70;;;6.40;80.30;;;;;;4952484;29;20023;-72
2022/01/06 12:30:17;;;;;;;6.88;2.40;;;6.40;81.40;;;;;;4946656;29;20036;-72
2022/01/06 12:32:59;;;;;;;3.55;1.95;;;6.40;81.30;;;;;;4944168;29;20039;-72
2022/01/06 12:35:39;;;;;;;10.43;3.33;;;6.50;80.90;;;;;;4952737;29;20050;-72
2022/01/06 12:38:06;;;;;;;8.35;2.83;;;6.40;81.00;;;;;;4954638;29;20031;-72
2022/01/06 12:40:40;;;;;;;5.68;3.28;;;6.40;78.90;;;;;;4955155;29;20488;-72
2022/01/06 12:43:21;;;;;;;14.07;2.38;;;6.40;80.00;;;;;;4953916;29;20042;-72
2022/01/06 12:46:16;;;;;;;6.78;2.42;;;6.40;79.60;;;;;;4954774;29;20039;-72
2022/01/06 12:48:48;;;;;;;9.30;3.67;;;6.40;79.40;;;;;;4926489;29;20040;-74
2022/01/06 12:51:23;;;;;;;7.47;3.17;;;6.40;80.70;;;;;;4944456;29;20052;-72
2022/01/06 12:54:00;;;;;;;6.88;2.20;;;6.40;80.30;;;;;;4946631;29;20040;-73
2022/01/06 12:56:29;;;;;;;7.25;2.45;;;6.20;78.90;;;;;;4944071;29;20035;-74
2022/01/06 12:59:06;;;;;;;7.32;3.08;;;6.10;80.10;;;;;;4934095;29;20042;-77
2022/01/06 13:01:33;;;;;;;11.52;2.80;;;6.00;81.00;;;;;;4954485;29;20031;-71
2022/01/06 13:04:00;;;;;;;8.90;3.08;;;6.00;80.30;;;;;;4953424;29;20039;-75
2022/01/06 13:06:34;;;;;;;12.18;2.75;;;5.80;81.00;;;;;;4954565;29;20039;-73
2022/01/06 13:09:12;;;;;;;8.23;2.60;;;5.90;80.90;;;;;;4953791;29;20039;-73
2022/01/06 13:11:47;;;;;;;13.50;2.60;;;6.00;81.10;;;;;;4954404;29;20552;-73